地図

経路データ

SID SEASON NUMBER BASIN SUBBASIN NAME ISO_TIME NATURE LAT LON WMO_WIND WMO_PRES WMO_AGENCY TRACK_TYPE DIST2LAND LANDFALL IFLAG USA_AGENCY USA_ATCF_ID USA_LAT USA_LON USA_RECORD USA_STATUS USA_WIND USA_PRES USA_SSHS USA_R34_NE USA_R34_SE USA_R34_SW USA_R34_NW USA_R50_NE USA_R50_SE USA_R50_SW USA_R50_NW USA_R64_NE USA_R64_SE USA_R64_SW USA_R64_NW USA_POCI USA_ROCI USA_RMW USA_EYE TOKYO_LAT TOKYO_LON TOKYO_GRADE TOKYO_WIND TOKYO_PRES TOKYO_R50_DIR TOKYO_R50_LONG TOKYO_R50_SHORT TOKYO_R30_DIR TOKYO_R30_LONG TOKYO_R30_SHORT TOKYO_LAND CMA_LAT CMA_LON CMA_CAT CMA_WIND CMA_PRES HKO_LAT HKO_LON HKO_CAT HKO_WIND HKO_PRES NEWDELHI_LAT NEWDELHI_LON NEWDELHI_GRADE NEWDELHI_WIND NEWDELHI_PRES NEWDELHI_CI NEWDELHI_DP NEWDELHI_POCI REUNION_LAT REUNION_LON REUNION_TYPE REUNION_WIND REUNION_PRES REUNION_TNUM REUNION_CI REUNION_RMW REUNION_R34_NE REUNION_R34_SE REUNION_R34_SW REUNION_R34_NW REUNION_R50_NE REUNION_R50_SE REUNION_R50_SW REUNION_R50_NW REUNION_R64_NE REUNION_R64_SE REUNION_R64_SW REUNION_R64_NW BOM_LAT BOM_LON BOM_TYPE BOM_WIND BOM_PRES BOM_TNUM BOM_CI BOM_RMW BOM_R34_NE BOM_R34_SE BOM_R34_SW BOM_R34_NW BOM_R50_NE BOM_R50_SE BOM_R50_SW BOM_R50_NW BOM_R64_NE BOM_R64_SE BOM_R64_SW BOM_R64_NW BOM_ROCI BOM_POCI BOM_EYE BOM_POS_METHOD BOM_PRES_METHOD NADI_LAT NADI_LON NADI_CAT NADI_WIND NADI_PRES WELLINGTON_LAT WELLINGTON_LON WELLINGTON_WIND WELLINGTON_PRES DS824_LAT DS824_LON DS824_STAGE DS824_WIND DS824_PRES TD9636_LAT TD9636_LON TD9636_STAGE TD9636_WIND TD9636_PRES TD9635_LAT TD9635_LON TD9635_WIND TD9635_PRES TD9635_ROCI NEUMANN_LAT NEUMANN_LON NEUMANN_CLASS NEUMANN_WIND NEUMANN_PRES MLC_LAT MLC_LON MLC_CLASS MLC_WIND MLC_PRES USA_GUST BOM_GUST BOM_GUST_PER REUNION_GUST REUNION_GUST_PER USA_SEAHGT USA_SEARAD_NE USA_SEARAD_SE USA_SEARAD_SW USA_SEARAD_NW STORM_SPEED STORM_DIR
1894192N20087 1894 27 NI BB NOT_NAMED 1894-07-11 00:00:00 TS 19.6000 86.9000 main 68 38 _________O____ -1 19.6000 86.9000 TC 45 6 308
1894192N20087 1894 27 NI BB NOT_NAMED 1894-07-11 03:00:00 TS 19.7701 86.6668 main 38 0 _________PO___ -1 19.8551 86.5502 TC 41 19.6000 86.9000 3 7 307
1894192N20087 1894 27 NI BB NOT_NAMED 1894-07-11 06:00:00 TS 20.0051 86.3226 main 0 0 _________OP___ -1 20.1000 86.2000 TC 37 19.8628 86.5066 3 8 305
1894192N20087 1894 27 NI BB NOT_NAMED 1894-07-11 09:00:00 TS 20.2314 85.9699 main 0 0 _________PP___ -1 20.3224 85.8500 TC 33 20.1100 86.1299 3 8 303
1894192N20087 1894 27 NI BB NOT_NAMED 1894-07-11 12:00:00 TS 20.4136 85.6441 main 0 0 _________OP___ -1 20.5000 85.5000 TC 30 20.3273 85.7882 3 7 298
1894192N20087 1894 27 NI BB NOT_NAMED 1894-07-11 15:00:00 TS 20.5575 85.3249 main 0 0 _________PO___ -1 20.6149 85.1499 TC 30 20.5000 85.5000 1 6 293
1894192N20087 1894 27 NI BB NOT_NAMED 1894-07-11 18:00:00 TS 20.6604 85.0330 main 0 0 _________OP___ -1 20.7000 84.8000 TC 30 20.6209 85.2660 1 5 291
1894192N20087 1894 27 NI BB NOT_NAMED 1894-07-11 21:00:00 TS 20.7470 84.7846 main 0 0 _________PP___ -1 20.7838 84.5544 TC 30 20.7101 85.0147 1 6 287
1894192N20087 1894 27 NI BB NOT_NAMED 1894-07-12 00:00:00 TS 20.8473 84.3781 main 0 0 _________OP___ -1 20.9000 84.1000 TC 30 20.7946 84.6562 1 11 283
1894192N20087 1894 27 NI BB NOT_NAMED 1894-07-12 03:00:00 TS 20.9966 83.6314 main 0 0 _________PO___ -1 21.0932 83.1628 TC 30 20.9000 84.1000 1 17 281
1894192N20087 1894 27 NI BB NOT_NAMED 1894-07-12 06:00:00 TS 21.1777 82.6249 main 0 0 _________OP___ -1 21.3000 82.0000 TC 30 21.0554 83.2498 1 20 280
1894192N20087 1894 27 NI BB NOT_NAMED 1894-07-12 09:00:00 TS 21.3433 81.5596 main 0 0 _________PP___ -1 21.4566 80.9221 TC 30 21.2299 82.1972 1 21 279
1894192N20087 1894 27 NI BB NOT_NAMED 1894-07-12 12:00:00 TS 21.5070 80.4105 main 0 0 _________OP___ -1 21.6000 79.8000 TC 30 21.4140 81.0210 1 22 279
1894192N20087 1894 27 NI BB NOT_NAMED 1894-07-12 15:00:00 TS 21.6711 79.2036 main 0 0 _________PO___ -1 21.7421 78.6071 TC 30 21.6000 79.8000 1 23 278
1894192N20087 1894 27 NI BB NOT_NAMED 1894-07-12 18:00:00 TS 21.8236 78.0038 main 0 0 _________OP___ -1 21.9000 77.4000 TC 30 21.7471 78.6077 1 23 278
1894192N20087 1894 27 NI AS NOT_NAMED 1894-07-12 21:00:00 TS 21.9880 76.8000 main 0 0 _________PP___ -1 22.0773 76.2048 TC 30 21.8987 77.3952 1 22 279
1894192N20087 1894 27 NI AS NOT_NAMED 1894-07-13 00:00:00 TS 22.1878 75.6551 main 0 0 _________OP___ -1 22.3000 75.1000 TC 30 22.0756 76.2103 1 21 283
1894192N20087 1894 27 NI AS NOT_NAMED 1894-07-13 03:00:00 TS 22.4344 74.6310 main 0 0 _________PO___ -1 22.5688 74.1620 TC 30 22.3000 75.1000 1 19 288
1894192N20087 1894 27 NI AS NOT_NAMED 1894-07-13 06:00:00 TS 22.7583 73.7030 main 0 0 _________OP___ -1 22.9000 73.3000 TC 30 22.6166 74.1060 1 18 293
1894192N20087 1894 27 NI AS NOT_NAMED 1894-07-13 09:00:00 TS 23.1440 72.7873 main 0 0 _________PP___ -1 23.3072 72.3853 TC 30 22.9808 73.1893 1 18 295
1894192N20087 1894 27 NI AS NOT_NAMED 1894-07-13 12:00:00 TS 23.5274 71.9139 main 0 0 _________OP___ -1 23.7000 71.5000 TC 30 23.3548 72.3277 1 17 294
1894192N20087 1894 27 NI AS NOT_NAMED 1894-07-13 15:00:00 TS 23.8397 71.0922 main 0 0 _________PO___ -1 23.9793 70.6843 TC 30 23.7000 71.5000 1 15 291
1894192N20087 1894 27 NI AS NOT_NAMED 1894-07-13 18:00:00 TS 24.0781 70.3507 main 0 0 _________OP___ -1 24.2000 69.9000 TC 30 23.9867 70.6886 1 15 288
1894192N20087 1894 27 NI AS NOT_NAMED 1894-07-13 21:00:00 TS 24.2943 69.5747 main 0 0 _________PP___ -1 24.4035 69.1057 TC 30 24.2216 69.8874 1 14 286
1894192N20087 1894 27 NI AS NOT_NAMED 1894-07-14 00:00:00 TS 24.4805 68.8283 main 0 0 _________OP___ -1 24.6000 68.3000 TC 30 24.4208 69.0925 1 12 285
1894192N20087 1894 27 NI AS NOT_NAMED 1894-07-14 03:00:00 NR 24.6000 68.3000 main 0 __________O___ -1 TC 24.6000 68.3000 1 10 284

IBTrACS Databaseについて

本データベースは、米国NOAAが公開する1842年以降の世界の熱帯低気圧のベストトラックデータアーカイブInternational Best Track Archive for Climate Stewardship (IBTrACS)を、ウェブで閲覧しやすい形式に変換したものです。

最終更新日:2021-12-08